Time;durP1;ratioP1;P1;durP2;ratioP2;P2;SDS_P1;SDS_P2;PMS_P1;PMS_P2;Temp;Humidity;BMP_temperature;BMP_pressure;BME280_temperature;BME280_humidity;BME280_pressure;Samples;Min_cycle;Max_cycle;Signal;HPM_P1;HPM_P2
2022/10/13 05:25:38;;;;;;;78.18;43.20;;;;;;;;;;5073520;23;20066;-59
2022/10/13 05:28:05;;;;;;;82.50;46.13;;;;;;;;;;4914891;29;20425;-58
2022/10/13 05:30:31;;;;;;;80.55;45.13;;;;;;;;;;4914289;29;20028;-58
2022/10/13 05:32:57;;;;;;;75.95;44.00;;;;;;;;;;4915045;29;20036;-58
2022/10/13 05:35:23;;;;;;;75.85;46.50;;;;;;;;;;4914784;29;20507;-59
2022/10/13 05:37:49;;;;;;;81.38;48.25;;;;;;;;;;4914561;29;20048;-58
2022/10/13 05:40:15;;;;;;;81.38;46.10;;;;;;;;;;4914882;29;20027;-58
2022/10/13 05:42:41;;;;;;;85.53;47.15;;;;;;;;;;4914806;29;20032;-59
2022/10/13 05:45:08;;;;;;;80.03;47.65;;;;;;;;;;4914748;29;20035;-59
2022/10/13 05:47:34;;;;;;;71.75;44.47;;;;;;;;;;4914881;29;20032;-63
2022/10/13 05:50:00;;;;;;;82.70;50.83;;;;;;;;;;4914766;29;20035;-59
2022/10/13 05:52:28;;;;;;;73.65;44.67;;;;;;;;;;4897006;29;20036;-59
2022/10/13 05:54:56;;;;;;;74.00;44.30;;;;;;;;;;4914518;29;20050;-59
2022/10/13 05:57:23;;;;;;;75.45;42.22;;;;;;;;;;4914472;29;20047;-69
2022/10/13 06:00:19;;;;;;;72.47;44.10;;;;;;;;;;4914226;29;20091;-59
2022/10/13 06:02:49;;;;;;;77.35;45.40;;;;;;;;;;4835287;29;20042;-60
2022/10/13 06:05:16;;;;;;;70.07;42.72;;;;;;;;;;4834273;29;20549;-61
2022/10/13 06:07:43;;;;;;;72.95;43.03;;;;;;;;;;4820957;29;20073;-63
2022/10/13 06:10:10;;;;;;;67.43;42.38;;;;;;;;;;4836073;29;20066;-60
2022/10/13 06:12:36;;;;;;;64.57;42.83;;;;;;;;;;4836113;29;20394;-61
2022/10/13 06:15:02;;;;;;;70.03;43.05;;;;;;;;;;4821049;29;20042;-60
2022/10/13 06:17:28;;;;;;;69.80;43.03;;;;;;;;;;4835993;29;20497;-58
2022/10/13 06:19:54;;;;;;;67.22;43.00;;;;;;;;;;4836040;29;20480;-60
2022/10/13 06:22:20;;;;;;;68.50;43.20;;;;;;;;;;4836220;29;20117;-62
2022/10/13 06:24:47;;;;;;;86.68;50.17;;;;;;;;;;4818540;29;20055;-61
2022/10/13 06:27:13;;;;;;;83.90;48.33;;;;;;;;;;4836855;29;20140;-61
2022/10/13 06:29:39;;;;;;;78.55;45.78;;;;;;;;;;4837772;29;20081;-61
2022/10/13 06:32:05;;;;;;;71.70;43.20;;;;;;;;;;4841041;29;20062;-62
2022/10/13 06:34:32;;;;;;;66.88;44.03;;;;;;;;;;4841025;29;20040;-59
2022/10/13 06:36:58;;;;;;;73.50;44.10;;;;;;;;;;4841103;29;20050;-60
2022/10/13 06:39:25;;;;;;;69.38;43.75;;;;;;;;;;4869190;29;20036;-59
2022/10/13 06:41:51;;;;;;;69.00;43.83;;;;;;;;;;4916839;29;20051;-61
2022/10/13 06:44:17;;;;;;;75.88;46.30;;;;;;;;;;4916592;29;20060;-70
2022/10/13 06:46:43;;;;;;;67.95;44.95;;;;;;;;;;4917778;29;20095;-65
2022/10/13 06:49:10;;;;;;;64.38;43.35;;;;;;;;;;4917329;29;20443;-61
2022/10/13 06:51:36;;;;;;;72.50;44.60;;;;;;;;;;4917684;29;20034;-65
2022/10/13 06:54:02;;;;;;;69.60;42.80;;;;;;;;;;4917259;29;20120;-62
2022/10/13 06:56:29;;;;;;;76.30;44.63;;;;;;;;;;4917245;29;20448;-61
2022/10/13 06:58:55;;;;;;;68.53;45.20;;;;;;;;;;4917538;29;20036;-61
2022/10/13 07:01:21;;;;;;;65.47;43.13;;;;;;;;;;4917463;29;20020;-68
2022/10/13 07:03:50;;;;;;;69.10;43.67;;;;;;;;;;4917382;29;20036;-61
2022/10/13 07:06:17;;;;;;;69.28;43.45;;;;;;;;;;4917083;29;20096;-60
2022/10/13 07:08:43;;;;;;;68.88;44.55;;;;;;;;;;4917125;29;20027;-61
2022/10/13 07:11:12;;;;;;;69.03;44.47;;;;;;;;;;4916312;29;20032;-61
2022/10/13 07:13:38;;;;;;;67.85;42.75;;;;;;;;;;4917086;29;20032;-61
2022/10/13 07:16:05;;;;;;;66.85;41.30;;;;;;;;;;4916975;29;20024;-61
2022/10/13 07:18:31;;;;;;;67.93;43.15;;;;;;;;;;4916738;29;20123;-61
2022/10/13 07:20:58;;;;;;;65.25;41.92;;;;;;;;;;4916867;29;20024;-61
2022/10/13 07:23:24;;;;;;;65.88;43.35;;;;;;;;;;4916678;29;20032;-61
2022/10/13 07:25:50;;;;;;;66.07;41.40;;;;;;;;;;4925496;29;20087;-61
2022/10/13 07:28:16;;;;;;;66.88;42.45;;;;;;;;;;4935930;29;20039;-61
2022/10/13 07:30:43;;;;;;;66.75;42.83;;;;;;;;;;4918732;29;20114;-69
2022/10/13 07:33:10;;;;;;;68.05;43.13;;;;;;;;;;4935555;29;20431;-68
2022/10/13 07:35:39;;;;;;;69.00;45.47;;;;;;;;;;4936114;29;20023;-67
2022/10/13 07:38:06;;;;;;;66.20;42.75;;;;;;;;;;4935753;29;20051;-70
2022/10/13 07:40:32;;;;;;;65.25;43.83;;;;;;;;;;4935822;29;20078;-62
2022/10/13 07:42:59;;;;;;;70.78;45.50;;;;;;;;;;4935446;29;20123;-64
2022/10/13 07:45:25;;;;;;;75.38;46.65;;;;;;;;;;4935486;29;20071;-61
2022/10/13 07:47:51;;;;;;;71.68;45.53;;;;;;;;;;4935477;29;20030;-67
2022/10/13 07:50:17;;;;;;;70.88;44.75;;;;;;;;;;4935423;29;20064;-65
2022/10/13 07:52:43;;;;;;;67.32;42.70;;;;;;;;;;4935528;29;20046;-60
2022/10/13 07:55:10;;;;;;;62.50;43.38;;;;;;;;;;4935041;29;20035;-69
2022/10/13 07:57:36;;;;;;;67.22;43.15;;;;;;;;;;4935218;29;20106;-60
2022/10/13 08:00:03;;;;;;;66.15;40.90;;;;;;;;;;4918317;29;20040;-60
2022/10/13 08:02:29;;;;;;;53.85;35.83;;;;;;;;;;4918244;29;20035;-61
2022/10/13 08:04:55;;;;;;;51.42;34.78;;;;;;;;;;4935295;29;20019;-60
2022/10/13 08:07:21;;;;;;;50.17;33.10;;;;;;;;;;4935333;29;20032;-60
2022/10/13 08:09:47;;;;;;;45.08;29.67;;;;;;;;;;4935189;29;20035;-61
2022/10/13 08:24:23;;;;;;;36.72;25.35;;;;;;;;;;5067700;28;20433;-63
2022/10/13 08:26:49;;;;;;;39.63;26.00;;;;;;;;;;5068259;28;20063;-61
2022/10/13 08:29:16;;;;;;;54.30;35.50;;;;;;;;;;5067876;28;20067;-68
2022/10/13 08:31:42;;;;;;;39.67;25.88;;;;;;;;;;5068073;28;20024;-69
2022/10/13 08:34:08;;;;;;;47.30;29.67;;;;;;;;;;5068343;28;20514;-63
2022/10/13 08:36:34;;;;;;;35.72;23.25;;;;;;;;;;5068020;28;20033;-63
2022/10/13 08:39:01;;;;;;;33.58;22.35;;;;;;;;;;5068046;28;20028;-71
2022/10/13 08:41:29;;;;;;;31.52;20.77;;;;;;;;;;5068052;28;20028;-62
2022/10/13 08:43:57;;;;;;;32.00;20.92;;;;;;;;;;5067166;28;20039;-64
2022/10/13 08:46:28;;;;;;;28.08;18.75;;;;;;;;;;5067584;28;20399;-62
2022/10/13 08:48:56;;;;;;;34.22;18.98;;;;;;;;;;5067902;28;20512;-64
2022/10/13 08:51:23;;;;;;;26.77;18.30;;;;;;;;;;5067613;28;20056;-63
2022/10/13 08:53:49;;;;;;;32.08;19.58;;;;;;;;;;5067644;28;20040;-69
2022/10/13 08:56:18;;;;;;;28.52;19.90;;;;;;;;;;5067697;28;20025;-64
2022/10/13 08:58:44;;;;;;;28.60;18.05;;;;;;;;;;5067084;28;20126;-64
2022/10/13 09:01:13;;;;;;;26.63;19.08;;;;;;;;;;5067224;28;20029;-63
2022/10/13 09:03:44;;;;;;;30.85;19.00;;;;;;;;;;5067268;28;20025;-68
2022/10/13 09:06:16;;;;;;;28.00;17.23;;;;;;;;;;5067592;28;20075;-64
2022/10/13 09:08:45;;;;;;;25.67;15.77;;;;;;;;;;5066454;28;20540;-70
2022/10/13 09:11:12;;;;;;;24.88;16.92;;;;;;;;;;5067276;28;20112;-70
2022/10/13 09:13:38;;;;;;;25.85;18.30;;;;;;;;;;5066640;28;20123;-63
2022/10/13 09:16:04;;;;;;;28.63;18.48;;;;;;;;;;5066012;28;20095;-70
2022/10/13 09:18:31;;;;;;;29.02;20.17;;;;;;;;;;5066144;28;20122;-63
2022/10/13 09:21:11;;;;;;;30.40;18.92;;;;;;;;;;5066938;28;20020;-63
2022/10/13 09:23:37;;;;;;;30.13;19.63;;;;;;;;;;5062484;28;20084;-71
2022/10/13 09:26:07;;;;;;;32.53;20.27;;;;;;;;;;5053556;28;20025;-62
2022/10/13 09:28:33;;;;;;;29.00;19.55;;;;;;;;;;5053704;28;20025;-63
2022/10/13 09:31:05;;;;;;;27.35;16.75;;;;;;;;;;5053566;28;20032;-62
2022/10/13 09:33:35;;;;;;;30.60;16.98;;;;;;;;;;5053518;28;20045;-63
2022/10/13 09:36:02;;;;;;;27.30;18.10;;;;;;;;;;5053470;28;20048;-63
2022/10/13 09:38:28;;;;;;;31.20;20.38;;;;;;;;;;5053430;28;20021;-63
2022/10/13 09:41:03;;;;;;;32.40;18.80;;;;;;;;;;5053668;28;20029;-63
2022/10/13 09:43:29;;;;;;;33.72;21.15;;;;;;;;;;5053194;28;20393;-63
2022/10/13 09:45:56;;;;;;;28.38;19.63;;;;;;;;;;5053684;28;20214;-63
2022/10/13 09:48:24;;;;;;;34.08;22.10;;;;;;;;;;5053261;28;20024;-63
2022/10/13 09:50:52;;;;;;;34.03;21.73;;;;;;;;;;5053270;28;20029;-64
2022/10/13 09:53:33;;;;;;;27.75;21.02;;;;;;;;;;5053222;28;20037;-63
2022/10/13 09:56:17;;;;;;;32.65;22.50;;;;;;;;;;5053248;28;20035;-65
2022/10/13 09:59:06;;;;;;;29.75;21.70;;;;;;;;;;5053003;28;20071;-66
2022/10/13 10:01:34;;;;;;;33.65;23.85;;;;;;;;;;5050500;28;20029;-63
2022/10/13 10:04:03;;;;;;;35.67;24.10;;;;;;;;;;5050603;28;20088;-64
2022/10/13 10:06:29;;;;;;;35.67;24.25;;;;;;;;;;5050736;28;20064;-66
2022/10/13 10:09:02;;;;;;;35.67;23.70;;;;;;;;;;5050667;28;20111;-70
2022/10/13 10:11:34;;;;;;;34.75;22.33;;;;;;;;;;5050316;28;21021;-69
2022/10/13 10:14:09;;;;;;;36.17;23.00;;;;;;;;;;5049625;28;20044;-69
2022/10/13 10:16:39;;;;;;;35.25;22.13;;;;;;;;;;5050674;28;20166;-65
2022/10/13 10:19:24;;;;;;;34.08;23.17;;;;;;;;;;5050581;28;20139;-63
2022/10/13 10:22:07;;;;;;;32.67;22.95;;;;;;;;;;5050002;28;20032;-63
2022/10/13 10:24:39;;;;;;;33.45;22.38;;;;;;;;;;5050295;28;20429;-63
2022/10/13 10:27:05;;;;;;;35.25;22.23;;;;;;;;;;5050064;28;20033;-64
2022/10/13 10:29:37;;;;;;;32.85;21.88;;;;;;;;;;5050221;28;20028;-63
2022/10/13 10:32:03;;;;;;;31.13;21.13;;;;;;;;;;5050136;28;20040;-63
2022/10/13 10:34:35;;;;;;;30.65;20.35;;;;;;;;;;5049901;28;20037;-63
2022/10/13 10:37:12;;;;;;;34.10;19.98;;;;;;;;;;5048254;28;20079;-62
2022/10/13 10:39:47;;;;;;;31.33;19.85;;;;;;;;;;5051001;28;20040;-62
2022/10/13 10:42:16;;;;;;;28.27;18.10;;;;;;;;;;5051181;28;20033;-64
2022/10/13 10:44:43;;;;;;;32.88;20.63;;;;;;;;;;5051654;28;20032;-63
2022/10/13 10:47:26;;;;;;;30.20;19.55;;;;;;;;;;5050903;28;20048;-63
2022/10/13 10:49:54;;;;;;;26.38;18.27;;;;;;;;;;5052088;28;20103;-63
2022/10/13 10:52:26;;;;;;;27.05;16.92;;;;;;;;;;5051843;28;20568;-63
2022/10/13 10:55:02;;;;;;;25.73;17.08;;;;;;;;;;5052517;28;20045;-70
2022/10/13 10:57:41;;;;;;;31.30;18.38;;;;;;;;;;5051934;28;20033;-63
2022/10/13 11:00:13;;;;;;;28.17;17.67;;;;;;;;;;5051837;28;20029;-62
2022/10/13 11:02:44;;;;;;;27.33;17.58;;;;;;;;;;5051651;28;20056;-62
2022/10/13 11:05:10;;;;;;;26.88;18.25;;;;;;;;;;5052219;28;20029;-70
2022/10/13 11:07:36;;;;;;;31.08;17.60;;;;;;;;;;5048601;28;20051;-63
2022/10/13 11:10:15;;;;;;;29.73;17.58;;;;;;;;;;5032312;28;20025;-69
2022/10/13 11:13:06;;;;;;;29.67;17.70;;;;;;;;;;5031813;28;20041;-69
2022/10/13 11:15:45;;;;;;;28.67;17.98;;;;;;;;;;5030356;28;20059;-69
2022/10/13 11:18:30;;;;;;;38.90;18.15;;;;;;;;;;5031498;28;20032;-71
2022/10/13 11:20:59;;;;;;;26.95;17.02;;;;;;;;;;5031757;28;20372;-64
2022/10/13 11:23:26;;;;;;;24.20;17.00;;;;;;;;;;5031386;28;20077;-68
2022/10/13 11:26:12;;;;;;;30.33;17.55;;;;;;;;;;5033844;28;20053;-72
2022/10/13 11:28:43;;;;;;;29.77;16.50;;;;;;;;;;5042955;28;20028;-72
2022/10/13 11:31:29;;;;;;;25.05;15.70;;;;;;;;;;5048075;28;20037;-63
2022/10/13 11:34:00;;;;;;;26.58;16.08;;;;;;;;;;5037444;28;20120;-62
2022/10/13 11:36:30;;;;;;;23.23;15.65;;;;;;;;;;5045066;28;20029;-68
2022/10/13 11:39:01;;;;;;;21.45;14.98;;;;;;;;;;5047173;28;20032;-68
2022/10/13 11:41:31;;;;;;;26.55;15.95;;;;;;;;;;5051366;28;20056;-64
2022/10/13 11:44:03;;;;;;;23.60;15.75;;;;;;;;;;5050682;28;20451;-77
2022/10/13 11:46:32;;;;;;;24.33;15.40;;;;;;;;;;5050731;28;20070;-68
2022/10/13 11:48:58;;;;;;;27.10;16.10;;;;;;;;;;5051211;28;20029;-63
2022/10/13 11:51:43;;;;;;;21.33;15.35;;;;;;;;;;5041245;28;20035;-67
2022/10/13 11:54:21;;;;;;;21.55;15.05;;;;;;;;;;5051399;28;20055;-61
2022/10/13 11:56:47;;;;;;;21.88;15.05;;;;;;;;;;5050894;28;20021;-71
2022/10/13 11:59:20;;;;;;;27.95;14.77;;;;;;;;;;5051011;28;20092;-65
2022/10/13 12:01:46;;;;;;;22.48;14.82;;;;;;;;;;5050634;28;20096;-72
2022/10/13 12:04:13;;;;;;;23.63;15.43;;;;;;;;;;5049620;28;20541;-71
2022/10/13 12:06:40;;;;;;;26.52;15.13;;;;;;;;;;5039705;28;20025;-66
2022/10/13 12:09:17;;;;;;;20.25;14.60;;;;;;;;;;5040581;28;20023;-71
2022/10/13 12:11:43;;;;;;;19.35;14.02;;;;;;;;;;5030940;28;20040;-67
2022/10/13 12:14:25;;;;;;;20.67;14.30;;;;;;;;;;5032737;28;20035;-69
2022/10/13 12:16:55;;;;;;;26.73;15.50;;;;;;;;;;5030794;28;20548;-63
2022/10/13 12:19:24;;;;;;;22.23;14.35;;;;;;;;;;5031037;28;20029;-62
2022/10/13 12:21:54;;;;;;;23.30;14.07;;;;;;;;;;5031849;28;20065;-61
2022/10/13 12:24:24;;;;;;;21.80;14.02;;;;;;;;;;5041088;28;20052;-64
2022/10/13 12:26:51;;;;;;;19.80;13.38;;;;;;;;;;5050440;28;20104;-64
2022/10/13 12:29:18;;;;;;;22.27;14.00;;;;;;;;;;5050220;28;20029;-62
2022/10/13 12:31:45;;;;;;;20.42;13.93;;;;;;;;;;5050409;28;20017;-63
2022/10/13 12:34:19;;;;;;;19.25;14.35;;;;;;;;;;5050514;28;20037;-64
2022/10/13 12:36:47;;;;;;;19.65;12.98;;;;;;;;;;5049706;28;20488;-63
2022/10/13 12:39:15;;;;;;;19.00;13.55;;;;;;;;;;5050345;28;20029;-63
2022/10/13 12:41:43;;;;;;;20.98;13.82;;;;;;;;;;5049266;28;20052;-63
2022/10/13 12:44:13;;;;;;;26.10;14.95;;;;;;;;;;5039976;28;20038;-63
2022/10/13 12:46:44;;;;;;;20.77;14.05;;;;;;;;;;5030757;28;20119;-65
2022/10/13 12:49:13;;;;;;;25.85;13.88;;;;;;;;;;5030391;28;20061;-64
2022/10/13 12:51:40;;;;;;;26.98;13.93;;;;;;;;;;5033838;28;20034;-70
